Time,TemperatureF,DewpointF,PressureIn,WindDirection,WindDirectionDegrees,WindSpeedMPH,WindSpeedGustMPH,Humidity,HourlyPrecipIn,Conditions,Clouds,dailyrainin,SolarRadiationWatts/m^2,UVIndex,SoftwareType,DateUTC
2026-09-06 00:04:56,73,71.2,29.88,NE,53,0.4,2.3,94,0.00,,,0.00,0,0,n/a,2026-09-06T04:04:56Z
2026-09-06 00:09:59,73,71.2,29.88,ENE,61,0.4,2.3,94,0.00,,,0.00,0,0,n/a,2026-09-06T04:09:59Z
2026-09-06 00:14:58,73,71.2,29.88,ENE,61,0,2.3,94,0.00,,,0.00,0,0,n/a,2026-09-06T04:14:58Z
2026-09-06 00:19:57,72.9,71.1,29.87,ENE,61,0.4,2.3,94,0.00,,,0.00,0,0,n/a,2026-09-06T04:19:57Z
2026-09-06 00:24:58,72.7,70.7,29.87,East,101,0.5,2.3,93.3,0.00,,,0.00,0,0,n/a,2026-09-06T04:24:58Z
2026-09-06 00:29:58,72.6,70.5,29.88,SSE,164,0.8,2.3,93,0.00,,,0.00,0,0,n/a,2026-09-06T04:29:58Z
2026-09-06 00:34:59,72.6,70.8,29.88,SSW,193,0.6,2.3,94,0.00,,,0.00,0,0,n/a,2026-09-06T04:34:59Z
2026-09-06 00:39:59,72.6,70.8,29.88,SSW,193,0.1,1.2,94,0.00,,,0.00,0,0,n/a,2026-09-06T04:39:59Z
2026-09-06 00:44:59,72.7,70.9,29.88,SSW,193,0,0,94,0.00,,,0.00,0,0,n/a,2026-09-06T04:44:59Z
2026-09-06 00:49:56,72.7,70.9,29.88,SSW,193,0,2.3,94,0.00,,,0.00,0,0,n/a,2026-09-06T04:49:56Z
2026-09-06 00:54:56,72.8,71,29.88,SSW,193,0.1,2.3,94,0.00,,,0.00,0,0,n/a,2026-09-06T04:54:56Z
2026-09-06 00:59:57,72.9,71.1,29.88,SSW,193,0.9,2.3,94,0.00,,,0.00,0,0,n/a,2026-09-06T04:59:57Z
2026-09-06 01:04:59,72.9,71.1,29.88,SSW,193,0,2.3,94,0.00,,,0.00,0,0,n/a,2026-09-06T05:04:59Z
2026-09-06 01:09:59,73,71.2,29.88,SSW,193,0.1,2.3,94,0.00,,,0.00,0,0,n/a,2026-09-06T05:09:59Z
2026-09-06 01:14:56,73,71.2,29.88,SSW,193,0,0,94,0.00,,,0.00,0,0,n/a,2026-09-06T05:14:56Z
2026-09-06 01:19:59,73,71.2,29.87,SSW,193,0,0,94,0.00,,,0.00,0,0,n/a,2026-09-06T05:19:59Z
2026-09-06 01:24:59,73,71.2,29.87,SSW,193,0.2,2.3,94,0.00,,,0.00,0,0,n/a,2026-09-06T05:24:59Z
2026-09-06 01:29:57,73,71.2,29.87,SSW,193,0.1,2.3,94,0.00,,,0.00,0,0,n/a,2026-09-06T05:29:57Z
2026-09-06 01:34:56,73,71.2,29.86,SSW,193,0,0,94,0.00,,,0.00,0,0,n/a,2026-09-06T05:34:56Z
2026-09-06 01:39:57,73,71.2,29.86,SSW,193,0,2.3,94,0.00,,,0.00,0,0,n/a,2026-09-06T05:39:57Z
2026-09-06 01:44:58,73,71.2,29.86,NE,36,0.5,1.2,94,0.00,,,0.00,0,0,n/a,2026-09-06T05:44:58Z
2026-09-06 01:49:57,73.1,71.3,29.86,NE,52,0.2,1.2,94,0.00,,,0.00,0,0,n/a,2026-09-06T05:49:57Z
2026-09-06 01:54:56,73.1,71.3,29.86,ESE,115,0.2,2.3,94,0.00,,,0.00,0,0,n/a,2026-09-06T05:54:56Z
2026-09-06 01:59:59,73.1,71.3,29.86,ESE,115,0.1,2.3,94,0.00,,,0.00,0,0,n/a,2026-09-06T05:59:59Z
2026-09-06 02:04:57,73.1,71.3,29.86,ESE,115,0,1.2,94,0.00,,,0.00,0,0,n/a,2026-09-06T06:04:57Z
2026-09-06 02:09:58,73.1,71.3,29.86,ESE,115,0.1,2.3,94,0.00,,,0.00,0,0,n/a,2026-09-06T06:09:58Z
2026-09-06 02:14:58,73.1,71.4,29.86,ESE,115,0.2,2.3,94.2,0.00,,,0.00,0,0,n/a,2026-09-06T06:14:58Z
2026-09-06 02:19:59,73.3,71.5,29.85,ESE,115,0.1,1.2,94.2,0.00,,,0.00,0,0,n/a,2026-09-06T06:19:59Z
2026-09-06 02:24:59,73.3,71.7,29.85,ESE,115,0.6,2.3,94.7,0.00,,,0.00,0,0,n/a,2026-09-06T06:24:59Z
2026-09-06 02:29:58,73.4,71.8,29.85,ESE,115,0.5,1.2,94.7,0.00,,,0.00,0,0,n/a,2026-09-06T06:29:58Z
2026-09-06 02:34:56,73.4,71.6,29.85,ESE,115,0,1.2,94,0.00,,,0.00,0,0,n/a,2026-09-06T06:34:56Z
2026-09-06 02:39:59,73.5,71.7,29.85,ENE,57,0.8,2.3,94,0.00,,,0.00,0,0,n/a,2026-09-06T06:39:59Z
2026-09-06 02:44:56,73.6,72,29.85,NE,40,0.8,2.3,94.7,0.00,,,0.00,0,0,n/a,2026-09-06T06:44:56Z
2026-09-06 02:49:57,73.6,72.1,29.85,NE,48,0.5,2.3,95,0.00,,,0.00,0,0,n/a,2026-09-06T06:49:57Z
2026-09-06 02:54:58,73.7,72.2,29.85,ENE,57,0.1,1.2,95,0.00,,,0.00,0,0,n/a,2026-09-06T06:54:58Z
2026-09-06 02:59:55,73.7,72.2,29.85,ENE,66,0.3,2.3,95,0.00,,,0.00,0,0,n/a,2026-09-06T06:59:55Z
2026-09-06 03:04:59,73.7,72.2,29.85,NNE,25,1,2.3,95,0.00,,,0.00,0,0,n/a,2026-09-06T07:04:59Z
2026-09-06 03:09:56,73.8,72.3,29.85,NE,45,1.2,4.6,95,0.00,,,0.00,0,0,n/a,2026-09-06T07:09:56Z
2026-09-06 03:14:59,73.8,72.3,29.85,NE,36,1.8,4.6,95,0.00,,,0.00,0,0,n/a,2026-09-06T07:14:59Z
2026-09-06 03:19:58,73.8,72.3,29.85,East,79,2.2,4.6,95,0.00,,,0.00,0,0,n/a,2026-09-06T07:19:58Z
2026-09-06 03:24:56,73.7,72,29.85,ENE,63,2,4.6,94.2,0.00,,,0.00,0,0,n/a,2026-09-06T07:24:56Z
2026-09-06 03:29:58,73.7,72.2,29.85,NE,38,1.9,5.8,94.9,0.00,,,0.00,0,0,n/a,2026-09-06T07:29:58Z
2026-09-06 03:34:59,73.7,72.2,29.85,ENE,57,1.4,4.6,95,0.00,,,0.00,0,0,n/a,2026-09-06T07:34:59Z
2026-09-06 03:39:59,73.7,72.2,29.85,East,99,1,2.3,95,0.00,,,0.00,0,0,n/a,2026-09-06T07:39:59Z
2026-09-06 03:44:57,73.7,72.2,29.85,East,80,1.7,3.5,95,0.00,,,0.00,0,0,n/a,2026-09-06T07:44:57Z
2026-09-06 03:49:57,73.7,72.2,29.85,ENE,76,2,3.5,95,0.00,,,0.00,0,0,n/a,2026-09-06T07:49:57Z
2026-09-06 03:54:58,73.7,72.2,29.85,ENE,63,2.7,5.8,95,0.00,,,0.00,0,0,n/a,2026-09-06T07:54:58Z
2026-09-06 03:59:59,73.7,72.2,29.85,East,83,2,4.6,95,0.00,,,0.00,0,0,n/a,2026-09-06T07:59:59Z
2026-09-06 04:04:59,73.7,72.2,29.85,ENE,57,1.8,5.8,95,0.00,,,0.00,0,0,n/a,2026-09-06T08:04:59Z
2026-09-06 04:09:59,73.7,72.2,29.85,East,90,3.1,5.8,95,0.00,,,0.00,0,0,n/a,2026-09-06T08:09:59Z
2026-09-06 04:14:56,73.7,72.2,29.86,ENE,71,2.1,4.6,95,0.00,,,0.00,0,0,n/a,2026-09-06T08:14:56Z
2026-09-06 04:19:57,73.7,72.2,29.86,ENE,75,1.8,6.9,95,0.00,,,0.00,0,0,n/a,2026-09-06T08:19:57Z
2026-09-06 04:24:59,73.7,72.2,29.86,NNE,31,2.1,6.9,95,0.00,,,0.00,0,0,n/a,2026-09-06T08:24:59Z
2026-09-06 04:29:56,73.6,72.1,29.86,ENE,63,1.2,5.8,95,0.00,,,0.00,0,0,n/a,2026-09-06T08:29:56Z
2026-09-06 04:34:58,73.6,72.1,29.86,East,83,2.2,5.8,95,0.00,,,0.00,0,0,n/a,2026-09-06T08:34:58Z
2026-09-06 04:39:59,73.6,72.1,29.86,NE,49,1.7,3.5,95,0.00,,,0.00,0,0,n/a,2026-09-06T08:39:59Z
2026-09-06 04:44:56,73.5,72,29.87,NE,51,1.6,3.5,95,0.00,,,0.00,0,0,n/a,2026-09-06T08:44:56Z
2026-09-06 04:49:58,73.5,72,29.87,ENE,65,1.6,3.5,94.8,0.00,,,0.00,0,0,n/a,2026-09-06T08:49:58Z
2026-09-06 04:54:58,73.5,71.7,29.87,ENE,73,1.6,3.5,94.1,0.00,,,0.00,0,0,n/a,2026-09-06T08:54:58Z
2026-09-06 04:59:56,73.4,71.6,29.87,ESE,108,0.9,3.5,94,0.00,,,0.00,0,0,n/a,2026-09-06T08:59:56Z
2026-09-06 05:04:56,73.4,71.6,29.87,East,94,0.8,2.3,94,0.00,,,0.00,0,0,n/a,2026-09-06T09:04:56Z
2026-09-06 05:09:56,73.4,71.6,29.87,East,87,0.6,3.5,94,0.00,,,0.00,0,0,n/a,2026-09-06T09:09:56Z
2026-09-06 05:14:56,73.4,71.6,29.88,ENE,76,1,3.5,94,0.00,,,0.00,0,0,n/a,2026-09-06T09:14:56Z
2026-09-06 05:19:56,73.4,71.6,29.88,NE,54,0.4,2.3,94,0.00,,,0.00,0,0,n/a,2026-09-06T09:19:56Z
2026-09-06 05:24:59,73.3,71.5,29.88,East,85,1.6,4.6,94,0.00,,,0.00,0,0,n/a,2026-09-06T09:24:59Z
2026-09-06 05:29:56,73.2,71.4,29.88,ENE,67,2.3,4.6,94,0.00,,,0.00,0,0,n/a,2026-09-06T09:29:56Z
2026-09-06 05:34:58,73.2,71.4,29.88,ENE,65,1.3,3.5,94,0.00,,,0.00,0,0,n/a,2026-09-06T09:34:58Z
2026-09-06 05:39:57,73.2,71.4,29.88,NE,49,0.3,2.3,94,0.00,,,0.00,0,0,n/a,2026-09-06T09:39:57Z
2026-09-06 05:44:57,73.2,71.4,29.88,NE,54,0.2,2.3,94,0.00,,,0.00,0,0,n/a,2026-09-06T09:44:57Z
2026-09-06 05:49:59,73.2,71.4,29.88,East,85,1,4.6,94,0.00,,,0.00,0,0,n/a,2026-09-06T09:49:59Z
2026-09-06 05:54:57,73.1,71.3,29.88,East,95,1.6,4.6,94,0.00,,,0.00,0,0,n/a,2026-09-06T09:54:57Z
2026-09-06 05:59:59,73.1,71.3,29.88,East,88,2.4,4.6,94,0.00,,,0.00,0,0,n/a,2026-09-06T09:59:59Z
2026-09-06 06:04:58,73.1,71.3,29.88,ENE,72,1.5,3.5,94,0.00,,,0.00,0,0,n/a,2026-09-06T10:04:58Z
2026-09-06 06:09:59,73.1,71.3,29.88,ENE,78,1.9,6.9,94,0.00,,,0.00,0,0,n/a,2026-09-06T10:09:59Z
2026-09-06 06:14:57,73,71.2,29.89,NE,48,2.3,4.6,94,0.00,,,0.00,0,0,n/a,2026-09-06T10:14:57Z
2026-09-06 06:19:56,73.1,71.3,29.89,NE,44,2.7,8.1,94,0.00,,,0.00,0,0,n/a,2026-09-06T10:19:56Z
2026-09-06 06:24:56,73,71.1,29.89,ENE,59,2,8.1,93.7,0.00,,,0.00,0,0,n/a,2026-09-06T10:24:56Z
2026-09-06 06:29:59,73,71.2,29.90,NE,39,1,2.3,93.8,0.00,,,0.00,0,0,n/a,2026-09-06T10:29:59Z
2026-09-06 06:34:58,73,71.1,29.90,NE,49,1.3,3.5,93.7,0.00,,,0.00,0,0,n/a,2026-09-06T10:34:58Z
2026-09-06 06:39:58,73,70.9,29.90,NE,54,1.9,3.5,93.1,0.00,,,0.00,0,0,n/a,2026-09-06T10:39:58Z
2026-09-06 06:44:58,72.9,70.8,29.90,NE,36,2.6,5.8,93,0.00,,,0.00,0,0,n/a,2026-09-06T10:44:58Z
2026-09-06 06:49:59,72.9,70.8,29.90,ENE,67,2.6,4.6,93,0.00,,,0.00,0,0,n/a,2026-09-06T10:49:59Z
2026-09-06 06:54:59,72.8,70.7,29.90,ENE,57,2.2,4.6,93,0.00,,,0.00,0,0,n/a,2026-09-06T10:54:59Z
2026-09-06 06:59:59,72.8,70.7,29.90,ENE,63,2,3.5,93,0.00,,,0.00,5,0,n/a,2026-09-06T10:59:59Z
2026-09-06 07:04:58,72.7,70.6,29.90,ENE,76,2.3,4.6,93,0.00,,,0.00,7,0,n/a,2026-09-06T11:04:58Z
2026-09-06 07:09:59,72.7,70.6,29.90,NE,45,2.1,5.8,93,0.00,,,0.00,11,0,n/a,2026-09-06T11:09:59Z
2026-09-06 07:14:59,72.8,70.7,29.91,NE,52,1,3.5,93,0.00,,,0.00,16,0,n/a,2026-09-06T11:14:59Z
2026-09-06 07:19:57,72.8,70.7,29.91,East,79,1.6,4.6,93,0.00,,,0.00,19,0,n/a,2026-09-06T11:19:57Z
2026-09-06 07:24:56,72.8,70.7,29.91,ENE,72,2.2,4.6,93,0.00,,,0.00,25,0,n/a,2026-09-06T11:24:56Z
2026-09-06 07:29:56,72.9,70.8,29.91,ENE,61,2.1,4.6,93,0.00,,,0.00,33,0,n/a,2026-09-06T11:29:56Z
2026-09-06 07:34:58,72.9,70.8,29.91,ENE,58,1.3,3.5,93,0.00,,,0.00,32,0,n/a,2026-09-06T11:34:58Z
2026-09-06 07:39:58,73,70.9,29.91,ENE,68,2.6,6.9,93,0.00,,,0.00,49,0,n/a,2026-09-06T11:39:58Z
2026-09-06 07:44:56,73.1,71,29.91,East,82,1,3.5,93,0.00,,,0.00,46,0,n/a,2026-09-06T11:44:56Z